createdAt,value
2018-12-03T08:31:14.462Z,276.00
2018-12-03T08:32:45.068Z,856.00
2018-12-03T08:33:45.198Z,948.00
2018-12-03T08:34:45.019Z,1052.00
2018-12-03T08:35:45.003Z,1100.00
2018-12-03T08:36:44.990Z,1116.00
2018-12-03T08:37:44.979Z,1116.00
2018-12-03T08:38:44.978Z,1128.00
2018-12-03T08:39:44.966Z,1048.00
2018-12-03T08:40:44.952Z,1124.00
2018-12-03T08:41:44.936Z,1000.00
2018-12-03T08:42:44.950Z,1056.00
2018-12-03T08:43:45.434Z,1152.00
2018-12-03T08:44:44.908Z,1064.00
2018-12-03T08:45:44.906Z,1068.00
2018-12-03T08:46:44.879Z,1200.00
2018-12-03T08:47:44.883Z,1120.00
2018-12-03T08:48:44.862Z,1144.00
2018-12-03T08:49:44.939Z,1116.00
2018-12-03T08:50:44.839Z,1296.00
2018-12-03T08:51:44.848Z,1248.00
2018-12-03T08:52:44.851Z,1244.00
2018-12-03T08:53:44.865Z,1304.00
2018-12-03T08:54:44.813Z,1484.00
2018-12-03T08:55:44.797Z,1596.00
2018-12-03T08:56:44.779Z,1472.00
2018-12-03T08:57:44.770Z,1424.00
2018-12-03T08:58:44.763Z,1364.00
2018-12-03T08:59:44.747Z,1208.00
2018-12-03T09:00:44.807Z,1160.00
2018-12-03T09:01:44.725Z,1244.00
2018-12-03T09:02:44.716Z,1324.00
2018-12-03T09:03:44.714Z,1356.00
2018-12-03T09:04:44.699Z,1404.00
2018-12-03T09:05:44.678Z,1872.00
2018-12-03T09:06:44.674Z,1984.00
2018-12-03T09:07:44.665Z,1984.00
2018-12-03T09:08:44.659Z,1808.00
2018-12-03T09:09:44.657Z,1480.00
2018-12-03T09:10:44.630Z,1128.00
2018-12-03T09:11:44.616Z,1324.00
2018-12-03T09:12:44.645Z,1488.00
2018-12-03T09:13:44.608Z,1480.00
2018-12-03T09:14:44.694Z,1728.00
2018-12-03T09:15:44.578Z,1984.00
2018-12-03T09:16:44.591Z,2388.00
2018-12-03T09:17:44.572Z,2652.00
2018-12-03T09:18:44.562Z,2856.00
2018-12-03T09:19:44.543Z,2780.00
2018-12-03T09:20:44.524Z,2732.00
2018-12-03T09:21:44.511Z,1936.00
2018-12-03T09:22:44.513Z,1448.00
2018-12-03T09:23:44.492Z,1308.00
2018-12-03T09:24:44.499Z,1180.00
2018-12-03T09:25:44.467Z,1108.00
2018-12-03T09:26:44.480Z,1028.00
2018-12-03T09:27:44.490Z,972.00
2018-12-03T09:28:44.444Z,1136.00
2018-12-03T09:29:44.428Z,992.00
2018-12-03T09:30:44.415Z,1112.00
2018-12-03T09:31:44.411Z,1112.00
2018-12-03T09:32:44.397Z,804.00
2018-12-03T09:33:44.414Z,684.00
2018-12-03T09:34:44.380Z,720.00
2018-12-03T09:35:44.371Z,720.00
2018-12-03T09:36:44.358Z,912.00
2018-12-03T09:37:44.350Z,1100.00
2018-12-03T09:38:44.334Z,1524.00
2018-12-03T09:39:44.318Z,2192.00
2018-12-03T09:40:44.316Z,2264.00
2018-12-03T09:41:44.322Z,2272.00
2018-12-03T09:42:44.298Z,2324.00
2018-12-03T09:43:44.284Z,2376.00
2018-12-03T09:44:44.298Z,2200.00
2018-12-03T09:45:44.340Z,1964.00
2018-12-03T09:46:44.249Z,1864.00
2018-12-03T09:47:44.234Z,1684.00
2018-12-03T09:48:44.225Z,1556.00
2018-12-03T09:49:44.223Z,1528.00
2018-12-03T09:50:44.210Z,1568.00
2018-12-03T09:51:44.231Z,1724.00
2018-12-03T09:52:44.196Z,1552.00
2018-12-03T09:53:44.200Z,1520.00
2018-12-03T09:54:44.167Z,1432.00
2018-12-03T09:55:44.157Z,1308.00
2018-12-03T09:56:44.140Z,1332.00
2018-12-03T09:57:44.129Z,1380.00
2018-12-03T09:58:44.121Z,1548.00
2018-12-03T09:59:44.133Z,1596.00
2018-12-03T10:00:44.098Z,1696.00
2018-12-03T10:01:44.089Z,1876.00
2018-12-03T10:02:44.090Z,1968.00
2018-12-03T10:03:44.062Z,1904.00
2018-12-03T10:04:44.060Z,1712.00
2018-12-03T10:05:44.052Z,1524.00
2018-12-03T10:06:44.063Z,1288.00
2018-12-03T10:07:44.061Z,1164.00
2018-12-03T10:08:44.129Z,1072.00
2018-12-03T10:09:44.009Z,1000.00
2018-12-03T10:10:43.988Z,904.00
2018-12-03T10:11:43.991Z,916.00
2018-12-03T10:12:43.972Z,828.00
2018-12-03T10:13:43.963Z,868.00
2018-12-03T10:14:43.955Z,840.00
2018-12-03T10:15:43.941Z,864.00
2018-12-03T10:16:43.924Z,924.00
2018-12-03T10:17:43.918Z,948.00
2018-12-03T10:18:43.911Z,920.00
2018-12-03T10:19:43.895Z,964.00
2018-12-03T10:20:43.892Z,956.00
2018-12-03T10:21:43.877Z,992.00
2018-12-03T10:22:43.860Z,1040.00
2018-12-03T10:23:43.865Z,1184.00
2018-12-03T10:24:43.844Z,1396.00
2018-12-03T10:25:43.843Z,1532.00
2018-12-03T10:26:43.824Z,1596.00
2018-12-03T10:27:43.810Z,1648.00
2018-12-03T10:28:43.803Z,1716.00
2018-12-03T10:29:43.795Z,1804.00
2018-12-03T10:30:43.785Z,1900.00
2018-12-03T10:31:43.771Z,2020.00
2018-12-03T10:32:43.771Z,2056.00
2018-12-03T10:33:43.750Z,2092.00
2018-12-03T10:34:43.746Z,2160.00
2018-12-03T10:35:43.729Z,2228.00
2018-12-03T10:36:43.713Z,2320.00
2018-12-03T10:37:43.706Z,2400.00
2018-12-03T10:38:43.771Z,2468.00
2018-12-03T10:39:43.686Z,2460.00
2018-12-03T10:40:43.721Z,2464.00
2018-12-03T10:41:43.673Z,2424.00
2018-12-03T10:42:43.655Z,2368.00
2018-12-03T10:43:43.643Z,2280.00
2018-12-03T10:44:43.637Z,2176.00
2018-12-03T10:45:43.624Z,2076.00
2018-12-03T10:46:43.620Z,1996.00
2018-12-03T10:47:43.601Z,1940.00
2018-12-03T10:48:43.595Z,1852.00
2018-12-03T10:49:43.584Z,1780.00
2018-12-03T10:50:43.581Z,1692.00
2018-12-03T10:51:43.570Z,1584.00
2018-12-03T10:52:43.548Z,1492.00
2018-12-03T10:53:43.538Z,1476.00
2018-12-03T10:54:43.534Z,1476.00
2018-12-03T10:55:43.512Z,1532.00
2018-12-03T10:56:43.548Z,1572.00
2018-12-03T10:57:43.498Z,1580.00
2018-12-03T10:58:43.480Z,1824.00
2018-12-03T10:59:43.466Z,2100.00
2018-12-03T11:00:43.467Z,2340.00
2018-12-03T11:01:43.447Z,2592.00
2018-12-03T11:02:43.445Z,2816.00
2018-12-03T11:03:43.430Z,3128.00
2018-12-03T11:04:43.418Z,3124.00
2018-12-03T11:05:43.414Z,3212.00
2018-12-03T11:06:43.402Z,3352.00
2018-12-03T11:07:43.406Z,2944.00
2018-12-03T11:08:43.386Z,2596.00
2018-12-03T11:09:43.363Z,2904.00
2018-12-03T11:10:43.370Z,3100.00
2018-12-03T11:11:43.396Z,3780.00
2018-12-03T11:12:43.330Z,5092.00
2018-12-03T11:13:43.332Z,4480.00
2018-12-03T11:15:16.511Z,3112.00
2018-12-03T11:16:16.464Z,3388.00
2018-12-03T11:17:48.300Z,3016.00
2018-12-03T11:18:48.014Z,2868.00
2018-12-03T11:19:48.076Z,3392.00
2018-12-03T11:20:48.000Z,3276.00
2018-12-03T11:21:48.127Z,3652.00
2018-12-03T11:22:47.973Z,3300.00
2018-12-03T11:23:48.111Z,2616.00
2018-12-03T11:24:47.956Z,2396.00
2018-12-03T11:25:48.053Z,2628.00
2018-12-03T11:26:47.944Z,1904.00
2018-12-03T11:27:48.069Z,1592.00
2018-12-03T11:28:47.920Z,1548.00
2018-12-03T11:29:48.089Z,1832.00
2018-12-03T11:30:47.899Z,1944.00
2018-12-03T11:31:48.015Z,2852.00
2018-12-03T11:32:47.866Z,1964.00
2018-12-03T11:33:48.032Z,2640.00
2018-12-03T11:34:47.843Z,2984.00
2018-12-03T11:35:48.059Z,2060.00
2018-12-03T11:36:47.881Z,2244.00
2018-12-03T11:37:47.985Z,2428.00
2018-12-03T11:38:47.795Z,2692.00
2018-12-03T11:39:48.873Z,1800.00
2018-12-03T11:40:47.781Z,2124.00
2018-12-03T11:41:47.815Z,1612.00
2018-12-03T11:42:47.755Z,1572.00
2018-12-03T11:43:47.851Z,1700.00
2018-12-03T11:44:47.754Z,1780.00
2018-12-03T11:45:47.863Z,1464.00
2018-12-03T11:46:47.790Z,1368.00
2018-12-03T11:47:47.791Z,1424.00
2018-12-03T11:48:47.752Z,1404.00
2018-12-03T11:49:47.802Z,1396.00
2018-12-03T11:50:47.664Z,1400.00
2018-12-03T11:51:48.769Z,1404.00
2018-12-03T11:52:48.481Z,1340.00
2018-12-03T11:53:47.752Z,1452.00
2018-12-03T11:54:47.645Z,1528.00
2018-12-03T11:55:47.775Z,1420.00
2018-12-03T11:56:47.628Z,1484.00
2018-12-03T11:57:47.800Z,1600.00
2018-12-03T11:58:47.591Z,1748.00
2018-12-03T11:59:47.590Z,1848.00
2018-12-03T12:00:47.641Z,2028.00
2018-12-03T12:01:47.562Z,2272.00
2018-12-03T12:02:47.658Z,2148.00
2018-12-03T12:03:47.542Z,1800.00
2018-12-03T12:04:47.691Z,1628.00
2018-12-03T12:05:47.522Z,1432.00
2018-12-03T12:06:47.597Z,1300.00
2018-12-03T12:07:47.505Z,1428.00
2018-12-03T12:08:47.639Z,1464.00
2018-12-03T12:09:47.486Z,1728.00
2018-12-03T12:10:47.535Z,1844.00
2018-12-03T12:11:47.505Z,2024.00
2018-12-03T12:12:47.577Z,2148.00
2018-12-03T12:13:47.471Z,2132.00
2018-12-03T12:14:47.594Z,2148.00
2018-12-03T12:15:47.407Z,2096.00
2018-12-03T12:16:47.519Z,2020.00
2018-12-03T12:17:47.406Z,2000.00
2018-12-03T12:18:47.542Z,1804.00
2018-12-03T12:19:48.045Z,1684.00
2018-12-03T12:20:47.466Z,1936.00
2018-12-03T12:21:47.360Z,2344.00
2018-12-03T12:22:47.388Z,2384.00
2018-12-03T12:23:47.328Z,2208.00
2018-12-03T12:24:47.406Z,1896.00
2018-12-03T12:25:47.338Z,1776.00
2018-12-03T12:26:47.456Z,1660.00
2018-12-03T12:27:47.285Z,1796.00
2018-12-03T12:28:47.452Z,1684.00
2018-12-03T12:29:47.337Z,1720.00
2018-12-03T12:30:47.256Z,1868.00
2018-12-03T12:31:47.385Z,1720.00
2018-12-03T12:32:47.240Z,1688.00
2018-12-03T12:33:47.427Z,1688.00
2018-12-03T12:34:47.213Z,1968.00
2018-12-03T12:35:47.525Z,1832.00
2018-12-03T12:36:47.184Z,1976.00
2018-12-03T12:37:47.376Z,2292.00
2018-12-03T12:38:47.178Z,2380.00
2018-12-03T12:39:47.165Z,2664.00
2018-12-03T12:40:47.196Z,2460.00
2018-12-03T12:41:47.133Z,2492.00
2018-12-03T12:42:47.231Z,2188.00
2018-12-03T12:43:47.147Z,2172.00
2018-12-03T12:44:47.140Z,2224.00
2018-12-03T12:45:47.198Z,1864.00
2018-12-03T12:46:47.150Z,1456.00
2018-12-03T12:47:47.185Z,1464.00
2018-12-03T12:48:47.066Z,1392.00
2018-12-03T12:49:47.196Z,1368.00
2018-12-03T12:50:47.039Z,1320.00
2018-12-03T12:51:51.631Z,1308.00
2018-12-03T12:52:47.934Z,1312.00
2018-12-03T12:53:47.138Z,1320.00
2018-12-03T12:54:47.114Z,1244.00
2018-12-03T12:55:47.194Z,1292.00
2018-12-03T12:56:46.989Z,1204.00
2018-12-03T12:57:46.976Z,1340.00
2018-12-03T12:58:47.115Z,1208.00
2018-12-03T12:59:46.961Z,1264.00
2018-12-03T13:00:47.125Z,1256.00
2018-12-03T13:01:46.940Z,1256.00
2018-12-03T13:02:47.062Z,1208.00
2018-12-03T13:03:46.895Z,1212.00
2018-12-03T13:04:46.977Z,1220.00
2018-12-03T13:05:46.898Z,1216.00
2018-12-03T13:06:46.989Z,1224.00
2018-12-03T13:07:46.855Z,1224.00
2018-12-03T13:08:47.029Z,1216.00
2018-12-03T13:09:46.832Z,1160.00
2018-12-03T13:10:46.935Z,992.00
2018-12-03T13:11:46.815Z,940.00
2018-12-03T13:12:46.957Z,912.00
2018-12-03T13:13:46.791Z,872.00
2018-12-03T13:14:46.870Z,848.00
2018-12-03T13:15:46.776Z,820.00
2018-12-03T13:16:46.905Z,812.00
2018-12-03T13:17:46.778Z,812.00
2018-12-03T13:18:46.926Z,812.00
2018-12-03T13:19:46.728Z,844.00
2018-12-03T13:20:46.731Z,864.00
2018-12-03T13:21:46.860Z,884.00
2018-12-03T13:22:46.700Z,944.00
2018-12-03T13:23:46.781Z,1000.00
2018-12-03T13:24:46.674Z,1084.00
2018-12-03T13:25:46.811Z,1204.00
2018-12-03T13:26:46.660Z,1160.00
2018-12-03T13:27:46.731Z,968.00
2018-12-03T13:28:46.637Z,816.00
2018-12-03T13:29:46.743Z,784.00
2018-12-03T13:30:46.609Z,780.00
2018-12-03T13:31:46.761Z,932.00
2018-12-03T13:32:46.617Z,1084.00
2018-12-03T13:33:46.689Z,1052.00
2018-12-03T13:34:46.641Z,980.00
2018-12-03T13:35:46.714Z,956.00
2018-12-03T13:36:46.535Z,1024.00
2018-12-03T13:37:46.742Z,1032.00
2018-12-03T13:38:46.546Z,948.00
2018-12-03T13:39:46.520Z,884.00
2018-12-03T13:40:46.675Z,800.00
2018-12-03T13:41:46.498Z,676.00
2018-12-03T13:42:46.694Z,564.00
2018-12-03T13:43:46.489Z,532.00
2018-12-03T13:44:46.507Z,532.00
2018-12-03T13:45:46.459Z,528.00
2018-12-03T13:46:46.448Z,524.00
2018-12-03T13:47:46.544Z,520.00
2018-12-03T13:48:46.424Z,508.00
2018-12-03T13:49:46.591Z,504.00
2018-12-03T13:50:46.394Z,516.00
2018-12-03T13:51:46.473Z,496.00
2018-12-03T13:52:46.498Z,472.00
2018-12-03T13:53:46.410Z,480.00
2018-12-03T13:54:46.513Z,484.00
2018-12-03T13:55:46.347Z,480.00
2018-12-03T13:56:46.568Z,480.00
2018-12-03T13:57:46.343Z,472.00
2018-12-03T13:58:46.480Z,456.00
2018-12-03T13:59:46.299Z,444.00
2018-12-03T14:00:46.537Z,444.00
2018-12-03T14:01:46.289Z,432.00
2018-12-03T14:02:46.431Z,436.00
2018-12-03T14:03:46.258Z,424.00
2018-12-03T14:04:46.344Z,416.00
2018-12-03T14:05:46.335Z,408.00
2018-12-03T14:06:46.419Z,404.00
2018-12-03T14:07:46.220Z,400.00
2018-12-03T14:08:46.277Z,396.00
2018-12-03T14:09:46.216Z,388.00
2018-12-03T14:10:47.344Z,384.00
2018-12-03T14:11:46.177Z,376.00
2018-12-03T14:12:46.226Z,372.00
2018-12-03T14:13:46.185Z,368.00
2018-12-03T14:14:46.452Z,364.00
2018-12-03T14:15:46.499Z,356.00
2018-12-03T14:16:46.289Z,356.00
2018-12-03T14:17:46.109Z,352.00
2018-12-03T14:18:48.266Z,348.00
2018-12-03T14:19:46.158Z,344.00
2018-12-03T14:20:47.726Z,340.00
2018-12-03T14:21:46.129Z,336.00
2018-12-03T14:22:47.200Z,336.00
2018-12-03T14:23:46.064Z,336.00
2018-12-03T14:24:46.211Z,332.00
2018-12-03T14:25:46.035Z,328.00
2018-12-03T14:26:46.764Z,324.00
2018-12-03T14:27:46.218Z,316.00
2018-12-03T14:28:50.818Z,312.00
2018-12-03T14:29:46.057Z,312.00
2018-12-03T14:30:48.183Z,312.00
2018-12-03T14:31:46.730Z,312.00
2018-12-03T14:32:48.982Z,312.00
2018-12-03T14:33:46.234Z,316.00
2018-12-03T14:34:46.051Z,324.00
2018-12-03T14:35:46.077Z,312.00
2018-12-03T14:36:45.941Z,304.00
2018-12-03T14:37:47.036Z,284.00
2018-12-03T14:38:45.978Z,276.00
2018-12-03T14:39:47.081Z,260.00
2018-12-03T14:40:45.945Z,252.00
2018-12-03T14:41:46.111Z,248.00
2018-12-03T14:42:45.861Z,236.00
2018-12-03T14:43:46.305Z,236.00
2018-12-03T14:44:45.928Z,228.00
2018-12-03T14:45:47.060Z,224.00
2018-12-03T14:46:45.885Z,212.00
2018-12-03T14:47:45.946Z,212.00
2018-12-03T14:48:45.844Z,208.00
2018-12-03T14:49:45.848Z,204.00
2018-12-03T14:50:45.771Z,196.00
2018-12-03T14:51:51.735Z,188.00
2018-12-03T14:52:45.738Z,184.00
2018-12-03T14:53:45.915Z,176.00
2018-12-03T14:54:45.743Z,132.00
2018-12-03T14:55:45.817Z,148.00
2018-12-03T14:56:45.701Z,160.00
2018-12-03T14:57:45.844Z,156.00
2018-12-03T14:58:45.662Z,152.00
2018-12-03T14:59:45.855Z,148.00
2018-12-03T15:00:45.670Z,140.00
2018-12-03T15:01:45.808Z,140.00
2018-12-03T15:02:45.693Z,132.00
2018-12-03T15:03:45.820Z,128.00
2018-12-03T15:04:45.626Z,116.00
2018-12-03T15:05:45.642Z,108.00
2018-12-03T15:06:45.589Z,120.00
2018-12-03T15:07:45.701Z,124.00
2018-12-03T15:08:45.574Z,124.00
2018-12-03T15:09:45.714Z,120.00
2018-12-03T15:10:45.611Z,120.00
2018-12-03T15:11:45.634Z,120.00
2018-12-03T15:12:45.668Z,116.00
2018-12-03T15:13:45.805Z,116.00
2018-12-03T15:14:45.583Z,112.00
2018-12-03T15:15:45.550Z,112.00
2018-12-03T15:16:45.694Z,112.00
2018-12-03T15:17:45.567Z,108.00
2018-12-03T15:18:45.668Z,112.00
2018-12-03T15:19:45.484Z,108.00
2018-12-03T15:20:46.741Z,108.00
2018-12-03T15:21:45.426Z,108.00
2018-12-03T15:22:45.575Z,108.00
2018-12-03T15:23:45.443Z,108.00
2018-12-03T15:24:45.509Z,108.00
2018-12-03T15:25:46.178Z,108.00
2018-12-03T15:26:45.520Z,108.00
2018-12-03T15:27:45.374Z,108.00
2018-12-03T15:28:46.453Z,104.00
2018-12-03T15:29:46.041Z,108.00
2018-12-03T15:30:45.467Z,108.00
2018-12-03T15:31:45.681Z,108.00
2018-12-03T15:32:45.502Z,108.00
2018-12-03T15:33:45.320Z,108.00
2018-12-03T15:34:45.421Z,108.00
2018-12-03T15:35:45.291Z,108.00
2018-12-03T15:36:45.429Z,108.00
2018-12-03T15:37:45.267Z,108.00
2018-12-03T15:38:45.446Z,100.00
2018-12-03T15:39:45.253Z,104.00
2018-12-03T15:40:45.229Z,108.00
2018-12-03T15:41:45.329Z,108.00
2018-12-03T15:42:45.214Z,108.00
2018-12-03T15:43:45.300Z,108.00
2018-12-03T15:44:45.193Z,108.00
2018-12-03T15:45:45.336Z,108.00
2018-12-03T15:46:45.162Z,108.00
2018-12-03T15:47:45.247Z,108.00
2018-12-03T15:48:45.275Z,108.00
2018-12-03T15:49:45.306Z,108.00
2018-12-03T15:50:45.122Z,108.00
2018-12-03T15:51:45.296Z,108.00
2018-12-03T15:52:45.097Z,108.00
2018-12-03T15:53:46.250Z,108.00
2018-12-03T15:54:45.090Z,108.00
2018-12-03T15:55:45.242Z,108.00
2018-12-03T15:56:45.057Z,108.00
2018-12-03T15:57:47.365Z,108.00
2018-12-03T15:58:45.059Z,108.00
2018-12-03T15:59:45.182Z,108.00
2018-12-03T16:00:45.010Z,108.00
2018-12-03T16:01:45.118Z,108.00
2018-12-03T16:02:45.001Z,108.00
2018-12-03T16:03:45.125Z,108.00
2018-12-03T16:04:44.970Z,108.00
2018-12-03T16:05:45.062Z,108.00
2018-12-03T16:06:44.993Z,108.00
2018-12-03T16:07:45.087Z,108.00
2018-12-03T16:08:44.926Z,108.00
2018-12-03T16:09:45.004Z,72.00
2018-12-03T16:10:44.914Z,84.00
2018-12-03T16:11:45.019Z,92.00
2018-12-03T16:12:45.537Z,108.00
2018-12-03T16:13:45.051Z,108.00
2018-12-03T16:14:44.870Z,108.00
2018-12-03T16:15:45.986Z,108.00
2018-12-03T16:16:44.849Z,108.00
2018-12-03T16:17:44.983Z,108.00
2018-12-03T16:18:44.900Z,108.00
2018-12-03T16:19:45.060Z,108.00
2018-12-03T16:20:44.784Z,108.00
2018-12-03T16:21:44.962Z,108.00
2018-12-03T16:22:44.781Z,108.00
2018-12-03T16:23:44.852Z,108.00
2018-12-03T16:24:44.750Z,108.00
2018-12-03T16:25:44.885Z,108.00
2018-12-03T16:26:44.736Z,108.00
2018-12-03T16:27:44.796Z,108.00
2018-12-03T16:28:44.741Z,108.00
2018-12-03T16:29:44.833Z,108.00
2018-12-03T16:30:44.689Z,108.00
2018-12-03T16:31:44.850Z,108.00
2018-12-03T16:32:44.664Z,108.00
2018-12-03T16:33:44.775Z,108.00
2018-12-03T16:34:44.648Z,108.00
2018-12-03T16:35:45.009Z,108.00
2018-12-03T16:36:44.633Z,108.00
2018-12-03T16:37:45.743Z,108.00
2018-12-03T16:38:44.604Z,108.00
2018-12-03T16:39:44.736Z,108.00
2018-12-03T16:40:44.620Z,108.00
2018-12-03T16:41:44.761Z,108.00
2018-12-03T16:42:44.569Z,108.00
2018-12-03T16:43:44.684Z,108.00
2018-12-03T16:44:44.557Z,108.00
2018-12-03T16:45:44.603Z,108.00
2018-12-03T16:46:44.515Z,108.00
2018-12-03T16:47:44.637Z,108.00
2018-12-03T16:48:44.497Z,108.00
2018-12-03T16:49:44.654Z,108.00
2018-12-03T16:50:44.480Z,108.00
2018-12-03T16:51:44.568Z,108.00
2018-12-03T16:52:44.484Z,108.00
2018-12-03T16:53:44.614Z,108.00
2018-12-03T16:54:44.460Z,108.00
2018-12-03T16:55:44.507Z,108.00
2018-12-03T16:56:44.418Z,108.00
2018-12-03T16:57:44.540Z,108.00
2018-12-03T16:58:44.398Z,108.00
2018-12-03T16:59:44.575Z,108.00
2018-12-03T17:00:44.389Z,108.00
2018-12-03T17:01:44.493Z,108.00
2018-12-03T17:02:44.364Z,108.00
2018-12-03T17:03:44.432Z,108.00
2018-12-03T17:04:44.332Z,108.00
2018-12-03T17:05:44.438Z,108.00
2018-12-03T17:06:44.300Z,108.00
2018-12-03T17:07:44.366Z,108.00
2018-12-03T17:08:44.293Z,108.00
2018-12-03T17:09:44.382Z,108.00
2018-12-03T17:10:44.303Z,108.00
2018-12-03T17:11:44.417Z,108.00
2018-12-03T17:12:44.242Z,108.00
2018-12-03T17:13:44.330Z,108.00
2018-12-03T17:14:44.218Z,108.00
2018-12-03T17:15:44.389Z,108.00
2018-12-03T17:16:44.222Z,108.00
2018-12-03T17:17:44.383Z,108.00
2018-12-03T17:18:44.179Z,108.00
2018-12-03T17:19:44.295Z,108.00
2018-12-03T17:20:44.154Z,108.00
2018-12-03T17:21:44.341Z,108.00
2018-12-03T17:22:44.150Z,108.00
2018-12-03T17:23:44.328Z,108.00
2018-12-03T17:24:44.118Z,108.00
2018-12-03T17:25:44.158Z,108.00
2018-12-03T17:26:44.105Z,108.00
2018-12-03T17:27:44.194Z,108.00
2018-12-03T17:28:44.089Z,108.00
2018-12-03T17:29:44.213Z,108.00
2018-12-03T17:30:44.064Z,108.00
2018-12-03T17:31:44.138Z,108.00
2018-12-03T17:32:44.025Z,108.00
2018-12-03T17:33:44.152Z,108.00
2018-12-03T17:34:48.823Z,108.00
2018-12-03T17:35:45.193Z,108.00
2018-12-03T17:36:43.988Z,108.00
2018-12-03T17:37:44.095Z,108.00
2018-12-03T17:38:43.965Z,108.00
2018-12-03T17:39:44.119Z,108.00
2018-12-03T17:40:43.953Z,108.00
2018-12-03T17:41:44.165Z,108.00
2018-12-03T17:42:43.933Z,108.00
2018-12-03T17:43:44.082Z,108.00
2018-12-03T17:44:43.913Z,108.00
2018-12-03T17:45:43.989Z,108.00
2018-12-03T17:46:43.885Z,108.00
2018-12-03T17:47:43.917Z,104.00
2018-12-03T17:48:43.881Z,104.00
2018-12-03T17:49:43.934Z,104.00
2018-12-03T17:50:43.842Z,104.00
2018-12-03T17:51:43.957Z,104.00
2018-12-03T17:52:43.826Z,104.00
2018-12-03T17:53:43.880Z,104.00
2018-12-03T17:54:43.804Z,104.00
2018-12-03T17:55:43.906Z,104.00
2018-12-03T17:56:43.773Z,104.00
2018-12-03T17:57:43.944Z,104.00
2018-12-03T17:58:43.763Z,104.00
2018-12-03T17:59:43.849Z,104.00
2018-12-03T18:00:43.747Z,104.00
2018-12-03T18:01:43.871Z,104.00
2018-12-03T18:02:43.721Z,104.00
2018-12-03T18:03:43.908Z,104.00
2018-12-03T18:04:43.698Z,104.00
2018-12-03T18:05:43.712Z,104.00
2018-12-03T18:06:43.695Z,104.00
2018-12-03T18:07:43.742Z,104.00
2018-12-03T18:08:43.656Z,104.00
2018-12-03T18:09:43.763Z,104.00
2018-12-03T18:10:43.635Z,104.00
2018-12-03T18:11:44.578Z,104.00
2018-12-03T18:12:43.626Z,104.00
2018-12-03T18:13:43.715Z,104.00
2018-12-03T18:14:43.587Z,104.00
2018-12-03T18:15:43.731Z,104.00
2018-12-03T18:16:43.566Z,104.00
2018-12-03T18:17:43.655Z,104.00
2018-12-03T18:18:43.560Z,104.00
2018-12-03T18:19:43.675Z,104.00
2018-12-03T18:20:43.526Z,104.00
2018-12-03T18:21:43.729Z,104.00
2018-12-03T18:22:43.497Z,104.00
2018-12-03T18:23:43.632Z,104.00
2018-12-03T18:24:43.500Z,104.00
2018-12-03T18:25:43.652Z,104.00
2018-12-03T18:26:43.504Z,104.00
2018-12-03T18:27:43.573Z,104.00
2018-12-03T18:28:43.434Z,104.00
2018-12-03T18:29:43.487Z,104.00
2018-12-03T18:30:43.443Z,104.00
2018-12-03T18:31:43.520Z,104.00
2018-12-03T18:32:43.421Z,104.00
2018-12-03T18:33:43.538Z,104.00
2018-12-03T18:34:43.378Z,104.00
2018-12-03T18:35:43.457Z,104.00
2018-12-03T18:36:43.414Z,104.00
2018-12-03T18:37:43.477Z,104.00
2018-12-03T18:38:43.334Z,104.00
2018-12-03T18:39:43.520Z,104.00
2018-12-03T18:40:43.313Z,104.00
2018-12-03T18:41:43.458Z,104.00
2018-12-03T18:42:43.386Z,104.00
2018-12-03T18:43:43.464Z,104.00
2018-12-03T18:44:43.275Z,104.00
2018-12-03T18:45:43.475Z,104.00
2018-12-03T18:46:43.252Z,104.00
2018-12-03T18:47:43.399Z,104.00
2018-12-03T18:48:43.227Z,104.00
2018-12-03T18:49:43.308Z,104.00
2018-12-03T18:50:43.199Z,104.00
2018-12-03T18:51:43.238Z,104.00
2018-12-03T18:52:43.192Z,104.00
2018-12-03T18:53:43.259Z,104.00
2018-12-03T18:54:43.161Z,104.00
2018-12-03T18:55:43.277Z,104.00
2018-12-03T18:56:43.174Z,104.00
2018-12-03T18:57:43.206Z,104.00
2018-12-03T18:58:43.122Z,104.00
2018-12-03T18:59:43.219Z,104.00
2018-12-03T19:00:43.099Z,104.00
2018-12-03T19:01:43.279Z,104.00
2018-12-03T19:02:43.085Z,104.00
2018-12-03T19:03:43.184Z,104.00
2018-12-03T19:04:43.054Z,104.00
2018-12-03T19:05:43.192Z,104.00
2018-12-03T19:06:43.035Z,104.00
2018-12-03T19:07:43.242Z,104.00
2018-12-03T19:08:43.030Z,104.00
2018-12-03T19:09:43.035Z,104.00
2018-12-03T19:10:43.002Z,104.00
2018-12-03T19:11:43.062Z,104.00
2018-12-03T19:12:42.995Z,104.00
2018-12-03T19:13:42.949Z,104.00
2018-12-03T19:14:43.105Z,104.00
2018-12-03T19:15:42.942Z,104.00
2018-12-03T19:16:43.016Z,104.00
2018-12-03T19:17:42.923Z,104.00
2018-12-03T19:18:43.044Z,104.00
2018-12-03T19:19:42.893Z,104.00
2018-12-03T19:20:43.074Z,104.00
2018-12-03T19:21:42.903Z,104.00
2018-12-03T19:22:42.992Z,104.00
2018-12-03T19:23:42.859Z,104.00
2018-12-03T19:24:43.019Z,104.00
2018-12-03T19:25:43.016Z,104.00
2018-12-03T19:26:42.820Z,104.00
2018-12-03T19:27:42.946Z,104.00
2018-12-03T19:28:42.795Z,104.00
2018-12-03T19:29:42.963Z,104.00
2018-12-03T19:30:42.816Z,104.00
2018-12-03T19:31:42.894Z,104.00
2018-12-03T19:32:42.764Z,104.00
2018-12-03T19:33:42.809Z,104.00
2018-12-03T19:34:42.755Z,104.00
2018-12-03T19:35:42.837Z,104.00
2018-12-03T19:36:42.741Z,104.00
2018-12-03T19:37:42.738Z,104.00
2018-12-03T19:38:42.867Z,104.00
2018-12-03T19:39:42.708Z,104.00
2018-12-03T19:40:42.787Z,104.00
2018-12-03T19:41:42.689Z,104.00
2018-12-03T19:42:42.854Z,104.00
2018-12-03T19:43:42.710Z,104.00
2018-12-03T19:44:42.859Z,104.00
2018-12-03T19:45:42.622Z,104.00
2018-12-03T19:46:42.798Z,104.00
2018-12-03T19:47:42.597Z,104.00
2018-12-03T19:48:42.787Z,104.00
2018-12-03T19:49:42.608Z,104.00
2018-12-03T19:50:42.711Z,100.00
2018-12-03T19:51:42.565Z,104.00
2018-12-03T19:52:42.638Z,104.00
2018-12-03T19:53:42.552Z,104.00
2018-12-03T19:54:42.646Z,104.00
2018-12-03T19:55:42.525Z,104.00
2018-12-03T19:56:42.593Z,104.00
2018-12-03T19:57:42.494Z,104.00
2018-12-03T19:58:42.592Z,104.00
2018-12-03T19:59:42.495Z,104.00
2018-12-03T20:00:42.617Z,104.00
2018-12-03T20:01:42.457Z,104.00
2018-12-03T20:02:42.557Z,104.00
2018-12-03T20:03:42.434Z,104.00
2018-12-03T20:04:42.564Z,104.00
2018-12-03T20:05:42.406Z,104.00
2018-12-03T20:06:42.633Z,104.00
2018-12-03T20:07:42.390Z,104.00
2018-12-03T20:08:42.517Z,104.00
2018-12-03T20:09:42.389Z,104.00
2018-12-03T20:10:42.875Z,104.00
2018-12-03T20:11:42.351Z,104.00
2018-12-03T20:12:42.459Z,104.00
2018-12-03T20:13:42.353Z,104.00
2018-12-03T20:14:42.377Z,104.00
2018-12-03T20:15:42.314Z,104.00
2018-12-03T20:16:42.396Z,104.00
2018-12-03T20:17:43.588Z,104.00
2018-12-03T20:18:42.420Z,104.00
2018-12-03T20:19:42.285Z,104.00
2018-12-03T20:20:42.333Z,104.00
2018-12-03T20:21:42.241Z,104.00
2018-12-03T20:22:42.375Z,104.00
2018-12-03T20:23:42.213Z,104.00
2018-12-03T20:24:44.337Z,104.00
2018-12-03T20:25:42.225Z,104.00
2018-12-03T20:26:42.315Z,104.00
2018-12-03T20:27:42.214Z,104.00
2018-12-03T20:28:42.343Z,104.00
2018-12-03T20:29:42.149Z,104.00
2018-12-03T20:30:42.259Z,104.00
2018-12-03T20:31:42.147Z,104.00
2018-12-03T20:32:42.177Z,104.00
2018-12-03T20:33:42.107Z,104.00
2018-12-03T20:34:42.201Z,104.00
2018-12-03T20:35:42.110Z,104.00
2018-12-03T20:36:42.125Z,104.00
2018-12-03T20:37:42.064Z,104.00
2018-12-03T20:38:42.142Z,104.00
2018-12-03T20:39:42.047Z,104.00
2018-12-03T20:40:42.178Z,104.00
2018-12-03T20:41:42.031Z,104.00
2018-12-03T20:42:42.209Z,104.00
2018-12-03T20:43:42.004Z,104.00
2018-12-03T20:44:42.160Z,104.00
2018-12-03T20:45:41.977Z,104.00
2018-12-03T20:46:42.146Z,104.00
2018-12-03T20:47:41.964Z,104.00
2018-12-03T20:48:42.105Z,104.00
2018-12-03T20:49:41.945Z,104.00
2018-12-03T20:50:43.650Z,104.00
2018-12-03T20:51:41.917Z,104.00
2018-12-03T20:52:47.198Z,104.00